createdAt,value
2022-10-31T00:01:39.327Z,28.80
2022-10-31T00:04:07.391Z,29.92
2022-10-31T00:06:34.909Z,29.65
2022-10-31T00:09:04.353Z,28.17
2022-10-31T00:11:32.101Z,25.60
2022-10-31T00:14:00.329Z,27.98
2022-10-31T00:16:28.939Z,26.95
2022-10-31T00:18:58.856Z,26.12
2022-10-31T00:21:26.821Z,25.33
2022-10-31T00:23:54.263Z,25.43
2022-10-31T00:26:22.000Z,25.50
2022-10-31T00:28:50.122Z,27.45
2022-10-31T00:31:17.853Z,27.55
2022-10-31T00:33:45.826Z,26.85
2022-10-31T00:36:15.398Z,27.23
2022-10-31T00:38:43.554Z,27.42
2022-10-31T00:41:12.547Z,25.92
2022-10-31T00:43:42.314Z,26.65
2022-10-31T00:46:10.936Z,27.92
2022-10-31T00:48:38.662Z,25.97
2022-10-31T00:51:06.355Z,26.02
2022-10-31T00:53:33.854Z,26.58
2022-10-31T00:56:02.077Z,26.83
2022-10-31T00:58:29.556Z,25.85
2022-10-31T01:00:57.095Z,26.80
2022-10-31T01:03:30.468Z,27.45
2022-10-31T01:06:09.144Z,25.20
2022-10-31T01:08:37.969Z,25.17
2022-10-31T01:11:17.847Z,26.67
2022-10-31T01:13:45.965Z,26.27
2022-10-31T01:16:16.133Z,26.62
2022-10-31T01:18:43.619Z,26.73
2022-10-31T01:21:17.329Z,25.33
2022-10-31T01:23:45.010Z,24.37
2022-10-31T01:26:16.333Z,25.57
2022-10-31T01:28:51.605Z,24.10
2022-10-31T01:31:20.498Z,25.05
2022-10-31T01:33:48.213Z,23.77
2022-10-31T01:36:38.967Z,23.50
2022-10-31T01:39:09.626Z,22.83
2022-10-31T01:41:41.192Z,24.08
2022-10-31T01:44:15.041Z,23.35
2022-10-31T01:46:53.751Z,23.08
2022-10-31T01:49:26.091Z,22.90
2022-10-31T01:52:01.977Z,23.57
2022-10-31T01:54:33.288Z,23.08
2022-10-31T01:57:01.066Z,22.85
2022-10-31T01:59:30.516Z,23.45
2022-10-31T02:01:58.595Z,24.23
2022-10-31T02:04:28.000Z,22.57
2022-10-31T02:06:59.480Z,22.58
2022-10-31T02:09:27.576Z,23.00
2022-10-31T02:11:57.598Z,21.17
2022-10-31T02:14:26.971Z,23.00
2022-10-31T02:16:55.322Z,23.07
2022-10-31T02:19:41.756Z,22.85
2022-10-31T02:22:20.958Z,23.35
2022-10-31T02:24:57.422Z,20.45
2022-10-31T02:27:46.781Z,21.60
2022-10-31T02:30:17.509Z,21.13
2022-10-31T02:33:44.102Z,20.98
2022-10-31T02:36:35.922Z,20.77
2022-10-31T02:39:14.609Z,20.73
2022-10-31T02:42:07.014Z,18.65
2022-10-31T02:44:50.132Z,20.10
2022-10-31T02:47:20.204Z,18.95
2022-10-31T02:49:58.675Z,19.90
2022-10-31T02:52:28.630Z,20.00
2022-10-31T02:54:59.904Z,20.05
2022-10-31T02:57:32.799Z,20.37
2022-10-31T03:00:06.965Z,17.52
2022-10-31T03:02:52.887Z,19.23
2022-10-31T03:05:38.652Z,20.52
2022-10-31T03:08:11.956Z,20.20
2022-10-31T03:10:48.090Z,20.17
2022-10-31T03:13:30.791Z,18.95
2022-10-31T03:16:09.336Z,21.05
2022-10-31T03:18:51.804Z,20.88
2022-10-31T03:21:48.704Z,19.55
2022-10-31T03:24:17.419Z,18.57
2022-10-31T03:26:51.087Z,19.95
2022-10-31T03:29:22.061Z,20.73
2022-10-31T03:32:18.411Z,19.83
2022-10-31T03:34:47.295Z,20.95
2022-10-31T03:37:19.242Z,19.80
2022-10-31T03:39:47.953Z,18.10
2022-10-31T03:42:27.120Z,18.60
2022-10-31T03:44:58.848Z,17.85
2022-10-31T03:47:28.477Z,18.42
2022-10-31T03:49:56.541Z,16.17
2022-10-31T03:52:30.989Z,18.20
2022-10-31T03:55:07.503Z,18.08
2022-10-31T03:57:40.585Z,16.85
2022-10-31T04:00:13.903Z,16.98
2022-10-31T04:03:00.207Z,18.67
2022-10-31T04:05:29.020Z,19.55
2022-10-31T04:08:01.591Z,19.62
2022-10-31T04:10:32.929Z,18.83
2022-10-31T04:13:12.833Z,20.73
2022-10-31T04:15:42.449Z,19.27
2022-10-31T04:18:10.091Z,18.45
2022-10-31T04:20:41.019Z,19.45
2022-10-31T04:23:25.376Z,20.55
2022-10-31T04:25:53.303Z,19.45
2022-10-31T04:28:21.236Z,19.17
2022-10-31T04:30:48.804Z,18.65
2022-10-31T04:33:16.518Z,18.55
2022-10-31T04:35:46.033Z,17.92
2022-10-31T04:38:13.574Z,17.98
2022-10-31T04:40:41.325Z,17.33
2022-10-31T04:43:10.178Z,18.58
2022-10-31T04:45:40.869Z,19.27
2022-10-31T04:48:09.618Z,18.33
2022-10-31T04:50:37.469Z,17.15
2022-10-31T04:53:05.011Z,17.27
2022-10-31T04:55:32.829Z,18.15
2022-10-31T04:58:01.986Z,17.85
2022-10-31T05:00:29.741Z,17.65
2022-10-31T05:02:58.838Z,17.67
2022-10-31T05:05:29.827Z,16.20
2022-10-31T05:07:57.887Z,16.73
2022-10-31T05:10:28.550Z,17.27
2022-10-31T05:13:00.768Z,16.85
2022-10-31T05:15:30.309Z,16.77
2022-10-31T05:18:03.450Z,17.07
2022-10-31T05:20:34.367Z,17.20
2022-10-31T05:23:03.487Z,18.48
2022-10-31T05:25:31.430Z,17.77
2022-10-31T05:27:59.726Z,18.27
2022-10-31T05:30:30.390Z,18.00
2022-10-31T05:32:59.098Z,17.75
2022-10-31T05:35:33.238Z,20.12
2022-10-31T05:38:01.780Z,18.95
2022-10-31T05:40:29.586Z,19.23
2022-10-31T05:42:59.728Z,17.77
2022-10-31T05:45:27.645Z,18.02
2022-10-31T05:48:01.585Z,17.10
2022-10-31T05:50:32.533Z,16.80
2022-10-31T05:53:02.626Z,18.10
2022-10-31T05:55:30.660Z,17.77
2022-10-31T05:57:59.254Z,18.15
2022-10-31T06:00:28.013Z,19.20
2022-10-31T06:03:01.241Z,18.05
2022-10-31T06:05:30.122Z,18.23
2022-10-31T06:07:58.330Z,18.57
2022-10-31T06:10:26.626Z,19.70
2022-10-31T06:12:54.647Z,19.80
2022-10-31T06:15:24.492Z,18.50
2022-10-31T06:18:05.356Z,18.77
2022-10-31T06:20:34.884Z,19.37
2022-10-31T06:23:03.216Z,17.50
2022-10-31T06:25:31.931Z,18.55
2022-10-31T06:27:59.581Z,18.67
2022-10-31T06:30:31.806Z,17.48
2022-10-31T06:33:06.316Z,18.37
2022-10-31T06:35:35.214Z,17.77
2022-10-31T06:38:03.414Z,18.75
2022-10-31T06:40:31.561Z,18.90
2022-10-31T06:43:01.596Z,18.05
2022-10-31T06:45:30.138Z,18.47
2022-10-31T06:50:54.682Z,19.15
2022-10-31T06:53:24.642Z,20.25
2022-10-31T06:55:52.648Z,18.85
2022-10-31T06:58:20.469Z,19.47
2022-10-31T07:00:48.749Z,20.02
2022-10-31T07:03:17.758Z,20.15
2022-10-31T07:05:45.650Z,19.62
2022-10-31T07:08:14.662Z,21.62
2022-10-31T07:10:43.941Z,19.93
2022-10-31T07:13:15.382Z,19.55
2022-10-31T07:15:44.868Z,16.65
2022-10-31T07:18:13.502Z,18.27
2022-10-31T07:20:41.277Z,20.05
2022-10-31T07:23:11.172Z,17.50
2022-10-31T07:25:39.687Z,19.60
2022-10-31T07:28:07.842Z,20.98
2022-10-31T07:30:35.625Z,19.27
2022-10-31T07:33:03.217Z,20.33
2022-10-31T07:35:33.433Z,19.17
2022-10-31T07:38:09.630Z,22.52
2022-10-31T07:40:37.213Z,18.48
2022-10-31T07:43:07.557Z,18.92
2022-10-31T07:45:40.646Z,17.92
2022-10-31T07:48:10.756Z,19.93
2022-10-31T07:50:45.662Z,16.83
2022-10-31T07:53:17.870Z,19.98
2022-10-31T07:55:45.858Z,17.08
2022-10-31T07:58:16.060Z,17.33
2022-10-31T08:00:45.733Z,16.33
2022-10-31T08:03:16.757Z,18.12
2022-10-31T08:05:48.218Z,16.80
2022-10-31T08:08:17.715Z,16.73
2022-10-31T08:10:45.428Z,17.67
2022-10-31T08:13:14.558Z,18.10
2022-10-31T08:15:43.170Z,16.75
2022-10-31T08:18:14.057Z,17.25
2022-10-31T08:20:45.453Z,15.57
2022-10-31T08:23:14.471Z,16.05
2022-10-31T08:25:43.318Z,15.40
2022-10-31T08:28:12.672Z,14.43
2022-10-31T08:30:42.253Z,15.32
2022-10-31T08:33:17.995Z,13.10
2022-10-31T08:35:52.765Z,13.43
2022-10-31T08:38:23.034Z,11.53
2022-10-31T08:40:50.975Z,12.63
2022-10-31T08:43:19.459Z,12.68
2022-10-31T08:45:50.171Z,13.00
2022-10-31T08:48:19.328Z,14.43
2022-10-31T08:50:47.839Z,15.33
2022-10-31T08:53:20.170Z,15.18
2022-10-31T08:55:49.312Z,15.15
2022-10-31T08:58:20.110Z,15.32
2022-10-31T09:00:50.594Z,14.87
2022-10-31T09:03:23.784Z,14.97
2022-10-31T09:05:55.267Z,14.00
2022-10-31T09:08:23.159Z,14.38
2022-10-31T09:10:51.832Z,12.18
2022-10-31T09:13:21.452Z,14.43
2022-10-31T09:15:50.548Z,14.13
2022-10-31T09:18:22.425Z,14.77
2022-10-31T09:20:50.927Z,14.63
2022-10-31T09:23:21.553Z,14.60
2022-10-31T09:25:51.161Z,14.35
2022-10-31T09:28:25.273Z,14.40
2022-10-31T09:30:54.197Z,15.13
2022-10-31T09:33:22.621Z,14.68
2022-10-31T09:35:52.274Z,15.50
2022-10-31T09:38:21.893Z,14.70
2022-10-31T09:41:16.211Z,14.40
2022-10-31T09:43:59.666Z,15.00
2022-10-31T09:46:36.437Z,14.73
2022-10-31T09:49:25.894Z,16.60
2022-10-31T09:52:04.910Z,16.85
2022-10-31T09:54:45.113Z,16.40
2022-10-31T09:57:16.057Z,15.38
2022-10-31T09:59:45.652Z,18.05
2022-10-31T10:02:22.897Z,16.10
2022-10-31T10:05:02.219Z,16.05
2022-10-31T10:07:33.373Z,13.83
2022-10-31T10:10:18.402Z,14.98
2022-10-31T10:13:10.967Z,15.50
2022-10-31T10:16:20.402Z,15.00
2022-10-31T10:19:02.885Z,14.65
2022-10-31T10:21:51.865Z,16.90
2022-10-31T10:24:34.943Z,14.75
2022-10-31T10:27:27.543Z,17.52
2022-10-31T10:30:07.422Z,17.15
2022-10-31T10:32:52.182Z,17.15
2022-10-31T10:35:35.885Z,15.20
2022-10-31T10:38:10.694Z,18.40
2022-10-31T10:40:38.336Z,18.35
2022-10-31T10:43:24.150Z,16.48
2022-10-31T10:46:16.200Z,16.62
2022-10-31T10:49:05.821Z,18.70
2022-10-31T10:52:12.804Z,17.20
2022-10-31T10:54:55.580Z,17.67
2022-10-31T10:57:30.074Z,17.60
2022-10-31T10:59:59.036Z,18.23
2022-10-31T11:02:27.809Z,15.97
2022-10-31T11:04:57.920Z,15.60
2022-10-31T11:07:25.651Z,16.50
2022-10-31T11:10:04.449Z,15.23
2022-10-31T11:12:34.467Z,18.45
2022-10-31T11:15:08.588Z,16.37
2022-10-31T11:17:40.793Z,16.37
2022-10-31T11:20:17.882Z,16.20
2022-10-31T11:22:48.635Z,16.10
2022-10-31T11:25:26.911Z,15.93
2022-10-31T11:28:01.862Z,16.50
2022-10-31T11:30:30.101Z,16.62
2022-10-31T11:32:58.268Z,15.13
2022-10-31T11:35:26.719Z,15.98
2022-10-31T11:37:56.155Z,14.82
2022-10-31T11:40:27.828Z,14.27
2022-10-31T11:42:58.303Z,14.65
2022-10-31T11:45:34.887Z,15.95
2022-10-31T11:48:17.348Z,15.02
2022-10-31T11:50:50.958Z,17.15
2022-10-31T11:53:20.626Z,17.03
2022-10-31T11:55:48.855Z,16.83
2022-10-31T11:58:25.053Z,17.10
2022-10-31T12:00:55.075Z,15.77
2022-10-31T12:03:41.614Z,17.95
2022-10-31T12:06:22.209Z,24.97
2022-10-31T12:08:50.279Z,21.20
2022-10-31T12:11:31.102Z,16.25
2022-10-31T12:14:18.910Z,16.17
2022-10-31T12:16:57.607Z,15.18
2022-10-31T12:19:37.606Z,16.17
2022-10-31T12:22:15.338Z,16.02
2022-10-31T12:25:00.410Z,15.35
2022-10-31T12:27:37.314Z,15.38
2022-10-31T12:30:21.559Z,15.77
2022-10-31T12:33:20.040Z,17.23
2022-10-31T12:36:21.618Z,16.25
2022-10-31T12:39:03.071Z,16.10
2022-10-31T12:41:52.678Z,16.62
2022-10-31T12:44:38.816Z,16.35
2022-10-31T12:47:21.519Z,16.50
2022-10-31T12:49:57.953Z,15.27
2022-10-31T12:52:37.614Z,16.27
2022-10-31T12:55:26.119Z,15.18
2022-10-31T12:57:58.387Z,16.50
2022-10-31T13:00:30.387Z,15.40
2022-10-31T13:03:05.028Z,15.30
2022-10-31T13:05:42.172Z,20.08
2022-10-31T13:08:20.917Z,17.98
2022-10-31T13:11:06.429Z,15.75
2022-10-31T13:13:39.125Z,15.47
2022-10-31T13:16:22.016Z,15.13
2022-10-31T13:18:55.687Z,15.60
2022-10-31T13:21:38.787Z,15.65
2022-10-31T13:24:17.262Z,19.77
2022-10-31T13:26:55.808Z,26.03
2022-10-31T13:29:44.342Z,21.62
2022-10-31T13:32:11.908Z,25.20
2022-10-31T13:34:56.153Z,20.05
2022-10-31T13:37:35.812Z,15.27
2022-10-31T13:40:03.756Z,14.60
2022-10-31T13:42:41.793Z,15.30
2022-10-31T13:45:18.721Z,18.20
2022-10-31T13:48:01.214Z,15.57
2022-10-31T13:50:32.534Z,13.48
2022-10-31T13:53:18.351Z,15.50
2022-10-31T13:55:49.249Z,14.57
2022-10-31T13:58:30.839Z,15.35
2022-10-31T14:01:16.112Z,13.35
2022-10-31T14:04:06.080Z,13.65
2022-10-31T14:06:43.973Z,13.23
2022-10-31T14:09:24.736Z,15.05
2022-10-31T14:11:53.106Z,13.38
2022-10-31T14:14:22.208Z,14.15
2022-10-31T14:16:56.985Z,15.00
2022-10-31T14:19:25.751Z,30.13
2022-10-31T14:21:53.298Z,19.95
2022-10-31T14:24:23.714Z,17.10
2022-10-31T14:27:03.468Z,14.82
2022-10-31T14:29:32.840Z,16.90
2022-10-31T14:32:13.766Z,17.57
2022-10-31T14:34:43.537Z,15.73
2022-10-31T14:37:40.787Z,14.77
2022-10-31T14:41:02.717Z,18.52
2022-10-31T14:44:06.289Z,16.48
2022-10-31T14:46:58.081Z,14.23
2022-10-31T14:49:44.245Z,13.35
2022-10-31T14:52:14.213Z,13.77
2022-10-31T14:54:46.520Z,13.60
2022-10-31T14:57:18.088Z,14.87
2022-10-31T14:59:50.375Z,13.90
2022-10-31T15:02:24.246Z,14.90
2022-10-31T15:04:53.979Z,15.38
2022-10-31T15:07:25.100Z,14.43
2022-10-31T15:10:01.516Z,14.68
2022-10-31T15:12:31.610Z,13.50
2022-10-31T15:15:12.427Z,14.38
2022-10-31T15:17:45.186Z,14.90
2022-10-31T15:20:13.601Z,15.00
2022-10-31T15:22:41.160Z,15.40
2022-10-31T15:25:18.487Z,14.10
2022-10-31T15:27:47.617Z,16.45
2022-10-31T15:30:24.909Z,16.33
2022-10-31T15:33:01.117Z,16.62
2022-10-31T15:35:31.885Z,15.68
2022-10-31T15:38:01.764Z,17.17
2022-10-31T15:40:29.674Z,26.45
2022-10-31T15:43:03.321Z,23.02
2022-10-31T15:45:31.603Z,16.70
2022-10-31T15:48:02.536Z,14.00
2022-10-31T15:50:38.507Z,15.03
2022-10-31T15:53:07.781Z,16.92
2022-10-31T15:55:39.416Z,16.75
2022-10-31T15:58:14.766Z,17.02
2022-10-31T16:00:42.642Z,17.85
2022-10-31T16:03:13.316Z,16.30
2022-10-31T16:05:45.448Z,19.05
2022-10-31T16:08:31.536Z,16.50
2022-10-31T16:11:08.446Z,25.77
2022-10-31T16:13:39.419Z,20.42
2022-10-31T16:16:34.079Z,20.87
2022-10-31T16:19:04.916Z,16.37
2022-10-31T16:21:35.214Z,14.93
2022-10-31T16:24:16.606Z,14.95
2022-10-31T16:26:52.591Z,17.65
2022-10-31T16:29:49.694Z,20.83
2022-10-31T16:32:31.582Z,16.50
2022-10-31T16:35:29.667Z,16.85
2022-10-31T16:37:57.113Z,18.37
2022-10-31T16:40:25.277Z,18.83
2022-10-31T16:42:53.003Z,17.83
2022-10-31T16:45:28.100Z,22.48
2022-10-31T16:48:03.776Z,20.33
2022-10-31T16:50:31.578Z,17.75
2022-10-31T16:53:15.171Z,15.93
2022-10-31T16:55:45.887Z,16.57
2022-10-31T16:58:20.232Z,17.23
2022-10-31T17:00:47.815Z,17.90
2022-10-31T17:03:15.661Z,16.45
2022-10-31T17:05:51.393Z,17.12
2022-10-31T17:08:19.125Z,16.13
2022-10-31T17:10:48.455Z,16.75
2022-10-31T17:13:21.786Z,16.17
2022-10-31T17:15:52.373Z,15.15
2022-10-31T17:18:24.442Z,15.57
2022-10-31T17:21:00.038Z,15.77
2022-10-31T17:23:28.678Z,17.23
2022-10-31T17:25:57.153Z,16.62
2022-10-31T17:28:26.637Z,16.48
2022-10-31T17:30:55.656Z,15.68
2022-10-31T17:33:23.411Z,17.33
2022-10-31T17:35:51.755Z,16.55
2022-10-31T17:38:19.232Z,16.75
2022-10-31T17:43:15.473Z,16.80
2022-10-31T17:45:43.131Z,16.60
2022-10-31T17:48:13.908Z,18.85
2022-10-31T17:50:41.394Z,17.50
2022-10-31T17:53:09.065Z,17.00
2022-10-31T17:55:37.730Z,17.10
2022-10-31T17:58:05.704Z,14.97
2022-10-31T18:00:33.671Z,16.83
2022-10-31T18:03:03.897Z,17.02
2022-10-31T18:05:32.058Z,15.73
2022-10-31T18:08:03.814Z,15.00
2022-10-31T18:10:32.178Z,14.60
2022-10-31T18:13:00.325Z,15.20
2022-10-31T18:15:28.378Z,15.52
2022-10-31T18:17:56.531Z,16.08
2022-10-31T18:20:24.296Z,15.82
2022-10-31T18:22:51.979Z,15.13
2022-10-31T18:25:19.683Z,14.55
2022-10-31T18:27:47.338Z,17.40
2022-10-31T18:30:15.044Z,14.23
2022-10-31T18:32:42.985Z,13.10
2022-10-31T18:35:10.791Z,14.10
2022-10-31T18:37:38.287Z,14.18
2022-10-31T18:40:06.803Z,14.57
2022-10-31T18:42:35.602Z,14.98
2022-10-31T18:45:17.099Z,14.40
2022-10-31T18:47:51.860Z,13.40
2022-10-31T18:50:19.892Z,13.27
2022-10-31T18:52:47.406Z,15.40
2022-10-31T18:55:15.186Z,14.63
2022-10-31T18:57:42.810Z,13.50
2022-10-31T19:00:10.960Z,13.47
2022-10-31T19:02:39.006Z,13.77
2022-10-31T19:05:06.746Z,14.85
2022-10-31T19:07:34.325Z,13.68
2022-10-31T19:10:02.273Z,14.45
2022-10-31T19:12:32.257Z,13.57
2022-10-31T19:14:59.748Z,14.18
2022-10-31T19:17:27.616Z,14.50
2022-10-31T19:19:55.359Z,15.02
2022-10-31T19:22:23.052Z,15.70
2022-10-31T19:24:51.003Z,15.13
2022-10-31T19:27:18.887Z,14.95
2022-10-31T19:29:46.385Z,14.13
2022-10-31T19:32:14.431Z,14.38
2022-10-31T19:34:41.927Z,14.30
2022-10-31T19:37:09.424Z,14.37
2022-10-31T19:39:42.759Z,14.98
2022-10-31T19:42:12.178Z,14.65
2022-10-31T19:44:40.178Z,14.45
2022-10-31T19:47:07.878Z,14.95
2022-10-31T19:49:36.108Z,15.13
2022-10-31T19:52:04.187Z,15.15
2022-10-31T19:54:32.217Z,16.02
2022-10-31T19:56:59.947Z,15.75
2022-10-31T19:59:28.102Z,17.02
2022-10-31T20:01:55.608Z,17.63
2022-10-31T20:04:23.683Z,17.10
2022-10-31T20:06:51.246Z,17.37
2022-10-31T20:09:19.146Z,17.60
2022-10-31T20:11:47.215Z,16.37
2022-10-31T20:14:17.068Z,15.60
2022-10-31T20:16:45.197Z,15.98
2022-10-31T20:19:13.088Z,16.98
2022-10-31T20:21:41.116Z,16.60
2022-10-31T20:24:09.849Z,16.58
2022-10-31T20:26:39.641Z,16.50
2022-10-31T20:29:07.335Z,17.20
2022-10-31T20:31:36.496Z,17.30
2022-10-31T20:34:04.625Z,17.73
2022-10-31T20:36:32.395Z,17.37
2022-10-31T20:39:00.412Z,15.90
2022-10-31T20:41:28.550Z,16.40
2022-10-31T20:43:56.156Z,16.60
2022-10-31T20:46:26.253Z,17.33
2022-10-31T20:48:54.427Z,16.48
2022-10-31T20:51:25.137Z,15.70
2022-10-31T20:53:54.230Z,16.02
2022-10-31T20:56:26.052Z,16.58
2022-10-31T20:58:57.180Z,17.30
2022-10-31T21:01:30.311Z,17.00
2022-10-31T21:03:59.357Z,16.20
2022-10-31T21:06:28.446Z,16.42
2022-10-31T21:08:56.604Z,17.37
2022-10-31T21:11:26.181Z,18.42
2022-10-31T21:13:54.336Z,17.83
2022-10-31T21:16:31.100Z,16.10
2022-10-31T21:19:00.172Z,16.75
2022-10-31T21:21:32.609Z,16.67
2022-10-31T21:24:03.916Z,16.62
2022-10-31T21:26:34.734Z,17.05
2022-10-31T21:29:04.058Z,15.73
2022-10-31T21:31:31.939Z,16.10
2022-10-31T21:33:59.411Z,17.37
2022-10-31T21:36:27.294Z,16.12
2022-10-31T21:38:55.442Z,16.80
2022-10-31T21:41:23.975Z,17.00
2022-10-31T21:43:54.322Z,16.98
2022-10-31T21:46:30.223Z,17.67
2022-10-31T21:48:59.730Z,18.25
2022-10-31T21:51:29.317Z,19.52
2022-10-31T21:54:15.733Z,16.60
2022-10-31T21:56:43.692Z,16.35
2022-10-31T21:59:11.616Z,15.57
2022-10-31T22:01:39.547Z,15.43
2022-10-31T22:04:07.405Z,15.93
2022-10-31T22:06:35.584Z,14.47
2022-10-31T22:09:05.005Z,14.25
2022-10-31T22:11:32.965Z,13.00
2022-10-31T22:14:01.014Z,12.70
2022-10-31T22:16:29.701Z,12.45
2022-10-31T22:19:00.078Z,12.83
2022-10-31T22:21:28.636Z,11.20
2022-10-31T22:24:01.808Z,12.88
2022-10-31T22:26:32.880Z,12.15
2022-10-31T22:29:02.657Z,12.02
2022-10-31T22:31:31.433Z,11.53
2022-10-31T22:33:59.929Z,12.70
2022-10-31T22:36:29.434Z,12.30
2022-10-31T22:38:57.946Z,13.48
2022-10-31T22:41:28.778Z,13.60
2022-10-31T22:43:56.874Z,12.47
2022-10-31T22:46:26.650Z,12.35
2022-10-31T22:48:56.727Z,11.00
2022-10-31T22:51:26.617Z,9.05
2022-10-31T22:53:57.780Z,9.27
2022-10-31T22:56:27.725Z,8.73
2022-10-31T22:58:55.650Z,10.65
2022-10-31T23:01:26.095Z,9.43
2022-10-31T23:03:53.876Z,9.27
2022-10-31T23:06:24.163Z,9.60
2022-10-31T23:08:52.784Z,10.20
2022-10-31T23:11:24.346Z,11.15
2022-10-31T23:14:10.604Z,10.98
2022-10-31T23:16:41.094Z,11.48
2022-10-31T23:19:10.265Z,9.80
2022-10-31T23:21:59.429Z,12.77
2022-10-31T23:24:44.275Z,11.43
2022-10-31T23:27:23.155Z,9.73
2022-10-31T23:29:52.693Z,11.32
2022-10-31T23:32:30.764Z,11.02
2022-10-31T23:35:00.555Z,11.00
2022-10-31T23:37:30.346Z,11.63
2022-10-31T23:40:16.685Z,10.82
2022-10-31T23:42:45.231Z,12.50
2022-10-31T23:45:12.922Z,12.27
2022-10-31T23:47:43.298Z,11.70
2022-10-31T23:50:11.407Z,10.82
2022-10-31T23:52:39.131Z,11.10
2022-10-31T23:55:07.129Z,9.55
2022-10-31T23:57:34.587Z,10.00
